Time;durP1;ratioP1;P1;durP2;ratioP2;P2;SDS_P1;SDS_P2;PMS_P1;PMS_P2;Temp;Humidity;BMP_temperature;BMP_pressure;BME280_temperature;BME280_humidity;BME280_pressure;Samples;Min_cycle;Max_cycle;Signal;HPM_P1;HPM_P2
2022/04/26 03:36:45;;;;;;;7.15;2.90;;;;;;;;;;4931247;29;20122;-64
2022/04/26 03:39:12;;;;;;;9.27;3.30;;;;;;;;;;4930617;29;20135;-63
2022/04/26 03:41:37;;;;;;;9.15;2.97;;;;;;;;;;4925683;29;20079;-65
2022/04/26 03:44:04;;;;;;;7.80;2.75;;;;;;;;;;4929024;29;20253;-63
2022/04/26 03:46:29;;;;;;;4.95;2.42;;;;;;;;;;4931617;29;20075;-65
2022/04/26 03:48:55;;;;;;;7.22;2.70;;;;;;;;;;4922285;29;20072;-64
2022/04/26 03:51:21;;;;;;;9.65;2.97;;;;;;;;;;4925050;29;20541;-65
2022/04/26 03:53:47;;;;;;;7.32;2.60;;;;;;;;;;4946140;29;20070;-64
2022/04/26 03:56:13;;;;;;;8.95;3.10;;;;;;;;;;4925477;29;20063;-64
2022/04/26 03:58:39;;;;;;;8.52;2.72;;;;;;;;;;4927584;29;20536;-64
2022/04/26 04:01:05;;;;;;;6.82;2.20;;;;;;;;;;4929836;29;20155;-64
2022/04/26 04:03:31;;;;;;;5.88;2.38;;;;;;;;;;4930084;29;20047;-63
2022/04/26 04:05:57;;;;;;;6.22;2.72;;;;;;;;;;4929143;29;20063;-65
2022/04/26 04:08:23;;;;;;;9.88;2.67;;;;;;;;;;4929760;29;20059;-64
2022/04/26 04:10:48;;;;;;;6.43;2.65;;;;;;;;;;4932241;29;20044;-64
2022/04/26 04:13:16;;;;;;;8.02;2.90;;;;;;;;;;4928998;29;20134;-64
2022/04/26 04:15:43;;;;;;;4.20;2.30;;;;;;;;;;4922652;29;20056;-64
2022/04/26 04:19:17;;;;;;;5.75;2.40;;;;;;;;;;4933252;29;20066;-64
2022/04/26 04:20:54;;;;;;;7.60;2.45;;;;;;;;;;4929969;29;20066;-65
2022/04/26 04:23:21;;;;;;;6.43;2.80;;;;;;;;;;4929220;29;20131;-64
2022/04/26 04:25:47;;;;;;;10.55;2.90;;;;;;;;;;4942105;28;20087;-63
2022/04/26 04:28:13;;;;;;;6.80;2.58;;;;;;;;;;4929664;29;20051;-65
2022/04/26 04:30:39;;;;;;;8.88;3.30;;;;;;;;;;4930671;29;20417;-64
2022/04/26 04:33:05;;;;;;;8.65;2.80;;;;;;;;;;4947451;29;20539;-64
2022/04/26 04:35:31;;;;;;;7.25;3.00;;;;;;;;;;4931065;29;20156;-64
2022/04/26 04:37:57;;;;;;;9.13;2.80;;;;;;;;;;4930455;29;20154;-65
2022/04/26 04:40:23;;;;;;;9.02;3.10;;;;;;;;;;4925982;29;20052;-64
2022/04/26 04:42:49;;;;;;;5.63;2.88;;;;;;;;;;4923560;29;20043;-63
2022/04/26 04:45:15;;;;;;;11.30;3.03;;;;;;;;;;4931979;29;20327;-63
2022/04/26 04:47:41;;;;;;;7.78;2.95;;;;;;;;;;4928295;29;20051;-64
2022/04/26 04:50:07;;;;;;;9.30;3.28;;;;;;;;;;4917054;29;20048;-65
2022/04/26 04:52:33;;;;;;;7.18;2.75;;;;;;;;;;4915542;29;20080;-65
2022/04/26 04:54:58;;;;;;;8.82;2.80;;;;;;;;;;4926516;29;20044;-66
2022/04/26 04:57:27;;;;;;;8.18;2.53;;;;;;;;;;4926758;29;20387;-64
2022/04/26 04:59:53;;;;;;;6.82;3.55;;;;;;;;;;4926460;29;20106;-64
2022/04/26 05:02:19;;;;;;;7.82;3.33;;;;;;;;;;4939140;28;20226;-63
2022/04/26 05:04:47;;;;;;;5.50;2.40;;;;;;;;;;4923615;29;20039;-64
2022/04/26 05:07:12;;;;;;;6.88;2.22;;;;;;;;;;4922053;29;20052;-63
2022/04/26 05:09:38;;;;;;;9.75;3.17;;;;;;;;;;4923924;29;20110;-63
2022/04/26 05:12:05;;;;;;;8.25;2.38;;;;;;;;;;4925364;29;20461;-63
2022/04/26 05:14:32;;;;;;;5.15;2.47;;;;;;;;;;4926664;29;20428;-64
2022/04/26 05:16:58;;;;;;;9.73;3.20;;;;;;;;;;4922921;29;20610;-64
2022/04/26 05:19:24;;;;;;;7.70;3.00;;;;;;;;;;4922239;29;20052;-64
2022/04/26 05:21:50;;;;;;;5.80;2.50;;;;;;;;;;4922187;29;20082;-68
2022/04/26 05:27:01;;;;;;;7.55;2.47;;;;;;;;;;4923506;29;20055;-64
2022/04/26 05:29:27;;;;;;;6.93;2.90;;;;;;;;;;4924631;29;20552;-64
2022/04/26 05:31:52;;;;;;;6.15;2.70;;;;;;;;;;4923641;29;20043;-65
2022/04/26 05:34:19;;;;;;;8.38;3.00;;;;;;;;;;4923682;29;20058;-65
2022/04/26 05:36:47;;;;;;;10.02;2.95;;;;;;;;;;4921112;29;20048;-63
2022/04/26 05:39:13;;;;;;;7.45;3.00;;;;;;;;;;4922860;29;20039;-64
2022/04/26 05:41:40;;;;;;;6.47;2.65;;;;;;;;;;4924353;29;20094;-63
2022/04/26 05:44:06;;;;;;;6.53;2.97;;;;;;;;;;4925630;29;20101;-63
2022/04/26 05:46:32;;;;;;;7.28;2.50;;;;;;;;;;4920954;29;20429;-63
2022/04/26 05:48:57;;;;;;;9.45;2.92;;;;;;;;;;4918566;29;20091;-68
2022/04/26 05:51:23;;;;;;;6.25;2.60;;;;;;;;;;4925984;29;20087;-63
2022/04/26 05:53:49;;;;;;;8.75;3.00;;;;;;;;;;4927452;28;20123;-64
2022/04/26 05:56:15;;;;;;;6.22;2.50;;;;;;;;;;4924305;29;20135;-64
2022/04/26 05:58:41;;;;;;;6.80;2.60;;;;;;;;;;4926210;29;20051;-64
2022/04/26 06:01:07;;;;;;;5.65;2.40;;;;;;;;;;4926335;29;20142;-63
2022/04/26 06:03:36;;;;;;;8.38;2.78;;;;;;;;;;4920811;29;20340;-64
2022/04/26 06:06:02;;;;;;;7.30;2.60;;;;;;;;;;4919214;29;20055;-63
2022/04/26 06:08:28;;;;;;;5.93;2.42;;;;;;;;;;4921362;29;20056;-66
2022/04/26 06:10:54;;;;;;;8.20;2.40;;;;;;;;;;4916632;29;20039;-65
2022/04/26 06:13:20;;;;;;;5.93;2.60;;;;;;;;;;4920666;29;20131;-64
2022/04/26 06:15:46;;;;;;;5.35;2.45;;;;;;;;;;4923536;29;20052;-64
2022/04/26 06:18:12;;;;;;;6.85;2.85;;;;;;;;;;4924356;29;20043;-65
2022/04/26 06:20:38;;;;;;;13.55;3.30;;;;;;;;;;4925291;29;20058;-64
2022/04/26 06:23:04;;;;;;;12.90;3.70;;;;;;;;;;4925225;29;20168;-67
2022/04/26 06:25:36;;;;;;;9.52;3.72;;;;;;;;;;4940920;28;20481;-66
2022/04/26 06:28:07;;;;;;;18.20;4.07;;;;;;;;;;4924166;29;20143;-66
2022/04/26 06:30:35;;;;;;;16.38;4.70;;;;;;;;;;4919891;29;20504;-68
2022/04/26 06:33:01;;;;;;;20.25;4.95;;;;;;;;;;4921805;29;20055;-70
2022/04/26 06:35:27;;;;;;;17.08;4.60;;;;;;;;;;4936110;28;20039;-66
2022/04/26 06:37:53;;;;;;;16.23;4.40;;;;;;;;;;4917523;29;20059;-62
2022/04/26 06:40:19;;;;;;;12.10;3.83;;;;;;;;;;4918710;29;20453;-64
2022/04/26 06:42:45;;;;;;;8.65;3.95;;;;;;;;;;4918043;29;20043;-69
2022/04/26 06:45:11;;;;;;;12.15;3.88;;;;;;;;;;4923101;29;20082;-67
2022/04/26 06:47:37;;;;;;;13.18;3.70;;;;;;;;;;4923082;29;20051;-65
2022/04/26 06:50:03;;;;;;;11.02;3.53;;;;;;;;;;4922674;29;20056;-64
2022/04/26 06:52:31;;;;;;;19.98;3.67;;;;;;;;;;4918798;29;20055;-65
2022/04/26 06:54:57;;;;;;;18.55;5.68;;;;;;;;;;4922334;29;20197;-66
2022/04/26 06:57:22;;;;;;;12.48;3.47;;;;;;;;;;4919622;29;20480;-71
2022/04/26 06:59:49;;;;;;;8.73;3.50;;;;;;;;;;4924408;29;20079;-65
2022/04/26 07:02:15;;;;;;;16.65;4.47;;;;;;;;;;4921615;29;20548;-67
2022/04/26 07:04:41;;;;;;;12.63;4.38;;;;;;;;;;4922094;29;20588;-65
2022/04/26 07:07:07;;;;;;;14.95;5.10;;;;;;;;;;4921324;29;20190;-75
2022/04/26 07:09:32;;;;;;;15.63;4.60;;;;;;;;;;4920488;29;20066;-68
2022/04/26 07:11:58;;;;;;;11.35;4.40;;;;;;;;;;4919711;29;20458;-65
2022/04/26 07:14:24;;;;;;;9.77;4.70;;;;;;;;;;4918723;29;20058;-67
2022/04/26 07:16:50;;;;;;;14.63;5.15;;;;;;;;;;4926607;29;20055;-66
2022/04/26 07:19:17;;;;;;;15.73;5.80;;;;;;;;;;4922456;29;20043;-66
2022/04/26 07:21:47;;;;;;;18.75;4.90;;;;;;;;;;4923088;29;20071;-64
2022/04/26 07:24:13;;;;;;;15.13;4.80;;;;;;;;;;4924973;29;20077;-66
2022/04/26 07:26:39;;;;;;;23.08;5.15;;;;;;;;;;4930591;29;20160;-68
2022/04/26 07:29:05;;;;;;;12.88;4.68;;;;;;;;;;4927766;29;20060;-67
2022/04/26 07:31:31;;;;;;;14.77;4.88;;;;;;;;;;4926652;29;20071;-65
2022/04/26 07:36:41;;;;;;;14.88;5.30;;;;;;;;;;4927891;29;20051;-66
2022/04/26 07:39:08;;;;;;;17.02;4.68;;;;;;;;;;4930317;29;20114;-68
2022/04/26 07:41:33;;;;;;;16.48;4.90;;;;;;;;;;4932302;29;20169;-67
2022/04/26 07:43:59;;;;;;;10.70;4.63;;;;;;;;;;4933159;29;20060;-67
2022/04/26 07:46:25;;;;;;;20.10;5.60;;;;;;;;;;4930183;29;20410;-66
2022/04/26 07:48:51;;;;;;;18.95;5.30;;;;;;;;;;4927141;29;20052;-67
2022/04/26 07:51:18;;;;;;;10.23;4.57;;;;;;;;;;4927258;29;20071;-67
2022/04/26 07:53:45;;;;;;;12.05;4.80;;;;;;;;;;4933263;29;20547;-69
2022/04/26 07:56:11;;;;;;;12.20;4.45;;;;;;;;;;4930776;29;20072;-66
2022/04/26 07:58:37;;;;;;;8.57;4.18;;;;;;;;;;4932176;29;20114;-66
2022/04/26 08:01:04;;;;;;;16.92;4.45;;;;;;;;;;4930196;29;20055;-68
2022/04/26 08:03:32;;;;;;;15.75;4.22;;;;;;;;;;4927919;29;20052;-68
2022/04/26 08:05:58;;;;;;;13.13;3.45;;;;;;;;;;4928934;29;20525;-68
2022/04/26 08:08:24;;;;;;;9.63;2.85;;;;;;;;;;4926341;29;20095;-67
2022/04/26 08:10:50;;;;;;;9.75;2.78;;;;;;;;;;4924731;29;20052;-64
2022/04/26 08:13:16;;;;;;;8.70;2.25;;;;;;;;;;4926299;29;20324;-65
2022/04/26 08:15:42;;;;;;;8.60;2.30;;;;;;;;;;4926452;29;20170;-64
2022/04/26 08:18:10;;;;;;;7.80;2.72;;;;;;;;;;4924503;29;20410;-63
2022/04/26 08:20:37;;;;;;;14.57;2.78;;;;;;;;;;4922739;29;20105;-68
2022/04/26 08:23:06;;;;;;;9.77;2.67;;;;;;;;;;4923784;29;20055;-65
2022/04/26 08:28:18;;;;;;;8.15;2.90;;;;;;;;;;4924358;29;20408;-65
2022/04/26 08:30:44;;;;;;;5.97;2.60;;;;;;;;;;4923071;29;20060;-65
2022/04/26 08:33:10;;;;;;;7.38;2.00;;;;;;;;;;4922989;29;20154;-65
2022/04/26 08:35:36;;;;;;;8.68;1.90;;;;;;;;;;4922648;29;21063;-64
2022/04/26 08:38:02;;;;;;;9.88;2.42;;;;;;;;;;4921955;29;20051;-63
2022/04/26 08:40:28;;;;;;;9.00;2.88;;;;;;;;;;4925238;29;20048;-69
2022/04/26 08:42:54;;;;;;;5.88;2.00;;;;;;;;;;4920570;29;20048;-69
2022/04/26 08:45:21;;;;;;;8.55;1.77;;;;;;;;;;4923372;28;20083;-64
2022/04/26 08:53:21;;;;;;;7.50;2.10;;;;;;;;;;4923323;29;20044;-66
2022/04/26 08:55:53;;;;;;;10.98;2.17;;;;;;;;;;4925477;29;20059;-65
2022/04/26 08:58:20;;;;;;;7.18;2.20;;;;;;;;;;4923817;29;20086;-65
2022/04/26 09:01:06;;;;;;;10.10;2.70;;;;;;;;;;4921508;29;20598;-64
2022/04/26 09:03:54;;;;;;;7.32;1.83;;;;;;;;;;4925669;29;20544;-64
2022/04/26 09:06:34;;;;;;;8.75;2.38;;;;;;;;;;4924195;29;20131;-65
2022/04/26 09:09:07;;;;;;;5.43;1.85;;;;;;;;;;4939876;29;20119;-64
2022/04/26 09:11:34;;;;;;;10.77;1.80;;;;;;;;;;4922512;29;20451;-64
2022/04/26 09:14:02;;;;;;;4.43;1.50;;;;;;;;;;4924305;29;20169;-64
2022/04/26 09:16:29;;;;;;;5.03;1.70;;;;;;;;;;4924928;29;20500;-65
2022/04/26 09:18:58;;;;;;;6.88;2.10;;;;;;;;;;4912035;29;20399;-67
2022/04/26 09:21:27;;;;;;;8.88;2.10;;;;;;;;;;4923926;29;20055;-66
2022/04/26 09:23:58;;;;;;;7.85;2.22;;;;;;;;;;4923121;29;20568;-63
2022/04/26 09:26:31;;;;;;;11.88;2.78;;;;;;;;;;4921341;29;20494;-66
2022/04/26 09:28:58;;;;;;;8.30;1.73;;;;;;;;;;4925801;29;20198;-62
2022/04/26 09:31:25;;;;;;;5.43;2.00;;;;;;;;;;4927461;29;20059;-64
2022/04/26 09:34:04;;;;;;;6.72;1.80;;;;;;;;;;4922111;29;20159;-63
2022/04/26 09:36:35;;;;;;;9.13;2.17;;;;;;;;;;4919008;29;20789;-65
2022/04/26 09:39:04;;;;;;;4.82;2.00;;;;;;;;;;4919434;29;20146;-63
2022/04/26 09:41:32;;;;;;;6.93;1.95;;;;;;;;;;4923380;29;20187;-65
2022/04/26 09:44:08;;;;;;;9.15;2.40;;;;;;;;;;4921487;29;20158;-63
2022/04/26 09:46:43;;;;;;;9.50;2.28;;;;;;;;;;4927057;29;20513;-67
2022/04/26 09:49:14;;;;;;;6.18;1.73;;;;;;;;;;4921572;29;20051;-67
2022/04/26 09:51:44;;;;;;;6.38;2.22;;;;;;;;;;4926643;29;20063;-65
2022/04/26 09:54:10;;;;;;;9.95;2.30;;;;;;;;;;4927279;29;20058;-65
2022/04/26 09:56:37;;;;;;;10.32;2.30;;;;;;;;;;4930032;29;20450;-63
2022/04/26 09:59:04;;;;;;;9.88;2.33;;;;;;;;;;4923170;29;20117;-65
2022/04/26 10:01:38;;;;;;;13.57;2.40;;;;;;;;;;4930294;29;20481;-66
2022/04/26 10:04:06;;;;;;;8.60;2.50;;;;;;;;;;4920537;29;20388;-63
2022/04/26 10:06:37;;;;;;;9.75;2.35;;;;;;;;;;4922523;29;20062;-63
2022/04/26 10:09:05;;;;;;;8.93;2.28;;;;;;;;;;4917319;29;20062;-66
2022/04/26 10:11:31;;;;;;;9.40;2.58;;;;;;;;;;4925967;28;20083;-67
2022/04/26 10:14:00;;;;;;;5.45;1.50;;;;;;;;;;4926009;29;20072;-70
2022/04/26 10:16:26;;;;;;;8.68;2.22;;;;;;;;;;4923617;29;20047;-65
2022/04/26 10:19:02;;;;;;;7.90;1.88;;;;;;;;;;4921085;29;20048;-67
2022/04/26 10:21:28;;;;;;;8.38;2.05;;;;;;;;;;4924901;29;20150;-64
2022/04/26 10:23:55;;;;;;;9.57;2.42;;;;;;;;;;4928365;29;20634;-65
2022/04/26 10:26:25;;;;;;;11.20;2.38;;;;;;;;;;4920817;29;20098;-67
2022/04/26 10:28:59;;;;;;;12.85;3.65;;;;;;;;;;4923274;29;20103;-66
2022/04/26 10:31:42;;;;;;;;;;;;;;;;;;4924994;29;20410;-67
2022/04/26 10:34:26;;;;;;;9.20;2.67;;;;;;;;;;4920774;29;20290;-68
2022/04/26 10:37:21;;;;;;;8.68;2.70;;;;;;;;;;4925580;29;20044;-69
2022/04/26 10:40:00;;;;;;;7.40;2.00;;;;;;;;;;4926346;29;20138;-67
2022/04/26 10:42:31;;;;;;;9.68;2.40;;;;;;;;;;4920479;29;20055;-67
2022/04/26 10:45:11;;;;;;;9.32;1.90;;;;;;;;;;4922445;29;20079;-68
2022/04/26 10:47:37;;;;;;;8.55;2.20;;;;;;;;;;4925652;29;20139;-74
2022/04/26 10:50:05;;;;;;;6.70;1.92;;;;;;;;;;4928385;29;21234;-68
2022/04/26 10:52:37;;;;;;;14.73;2.00;;;;;;;;;;4929630;29;20127;-72
2022/04/26 10:55:08;;;;;;;6.18;2.00;;;;;;;;;;4931921;29;20052;-74
2022/04/26 10:57:45;;;;;;;7.30;2.60;;;;;;;;;;4929262;29;20362;-71
2022/04/26 11:00:17;;;;;;;6.75;1.75;;;;;;;;;;4927798;29;20048;-73
2022/04/26 11:02:46;;;;;;;5.97;1.80;;;;;;;;;;4925307;29;20066;-69
2022/04/26 11:05:13;;;;;;;9.05;2.22;;;;;;;;;;4925637;29;20060;-70
2022/04/26 11:07:41;;;;;;;7.82;2.20;;;;;;;;;;4927508;29;20383;-68
2022/04/26 11:10:09;;;;;;;7.97;2.22;;;;;;;;;;4929027;29;20091;-68
2022/04/26 11:12:37;;;;;;;10.57;2.17;;;;;;;;;;4926821;29;20347;-72
2022/04/26 11:15:10;;;;;;;6.75;2.03;;;;;;;;;;4926607;29;20048;-65
2022/04/26 11:17:37;;;;;;;7.00;2.28;;;;;;;;;;4928354;29;20087;-67
2022/04/26 11:20:12;;;;;;;11.30;2.05;;;;;;;;;;4926429;29;20061;-67
2022/04/26 11:22:44;;;;;;;5.13;2.05;;;;;;;;;;4925570;29;20110;-69
2022/04/26 11:28:10;;;;;;;9.35;2.15;;;;;;;;;;4926837;29;20494;-71
2022/04/26 11:30:42;;;;;;;7.85;1.73;;;;;;;;;;4928485;29;20118;-69
2022/04/26 11:33:12;;;;;;;8.70;2.00;;;;;;;;;;4928675;29;21034;-70
2022/04/26 11:35:39;;;;;;;13.88;2.17;;;;;;;;;;4922816;29;20048;-70
2022/04/26 11:38:08;;;;;;;6.43;2.22;;;;;;;;;;4926165;29;20243;-69
2022/04/26 11:40:38;;;;;;;5.93;1.75;;;;;;;;;;4924148;29;20051;-69
2022/04/26 11:43:10;;;;;;;8.63;2.15;;;;;;;;;;4925341;29;20425;-69
2022/04/26 11:45:37;;;;;;;6.82;2.05;;;;;;;;;;4924971;29;20047;-69
2022/04/26 11:48:07;;;;;;;7.28;2.00;;;;;;;;;;4923570;29;20063;-69
2022/04/26 11:50:33;;;;;;;5.80;1.50;;;;;;;;;;4920758;29;20055;-69
2022/04/26 11:53:01;;;;;;;5.65;1.65;;;;;;;;;;4925266;29;20051;-67
2022/04/26 11:55:38;;;;;;;5.70;1.50;;;;;;;;;;4925698;29;20048;-68
2022/04/26 11:58:18;;;;;;;4.35;1.70;;;;;;;;;;4921609;29;20123;-67
2022/04/26 12:00:56;;;;;;;10.43;1.65;;;;;;;;;;4922336;29;20135;-67
2022/04/26 12:03:25;;;;;;;15.60;2.00;;;;;;;;;;4918632;29;20091;-66
2022/04/26 12:06:00;;;;;;;10.57;1.90;;;;;;;;;;4922397;29;20467;-68
2022/04/26 12:08:27;;;;;;;7.45;1.95;;;;;;;;;;4922524;29;20148;-68
2022/04/26 12:10:53;;;;;;;8.05;2.38;;;;;;;;;;4918568;29;20346;-65
2022/04/26 12:13:31;;;;;;;8.43;1.90;;;;;;;;;;4920771;29;20089;-65
2022/04/26 12:16:16;;;;;;;8.13;2.30;;;;;;;;;;4918946;29;20532;-64
2022/04/26 12:18:51;;;;;;;3.83;1.65;;;;;;;;;;4922166;29;20665;-64
2022/04/26 12:21:17;;;;;;;5.25;1.90;;;;;;;;;;4921326;29;20138;-67
2022/04/26 12:23:43;;;;;;;4.13;1.58;;;;;;;;;;4926816;29;20506;-66
2022/04/26 12:26:10;;;;;;;6.20;1.70;;;;;;;;;;4921086;29;20054;-66
2022/04/26 12:28:50;;;;;;;5.43;2.03;;;;;;;;;;4923231;29;20056;-65
2022/04/26 12:31:29;;;;;;;3.88;1.65;;;;;;;;;;4919808;29;20060;-65
2022/04/26 12:34:13;;;;;;;4.43;1.90;;;;;;;;;;4920193;29;20059;-66
2022/04/26 12:36:52;;;;;;;8.50;2.25;;;;;;;;;;4922579;29;20051;-66
2022/04/26 12:39:22;;;;;;;7.63;2.03;;;;;;;;;;4922445;29;20517;-67
2022/04/26 12:41:51;;;;;;;5.85;1.67;;;;;;;;;;4920018;29;20178;-67
2022/04/26 12:44:18;;;;;;;6.78;1.50;;;;;;;;;;4925954;29;20063;-69
2022/04/26 12:52:33;;;;;;;;;;;;;;;;;;4922678;29;20064;-67
2022/04/26 12:54:59;;;;;;;3.55;1.40;;;;;;;;;;4922239;29;19949;-68
2022/04/26 12:57:25;;;;;;;3.80;1.50;;;;;;;;;;4920237;29;20453;-66
2022/04/26 12:59:51;;;;;;;4.10;1.63;;;;;;;;;;4920851;29;20051;-67
2022/04/26 13:02:16;;;;;;;7.70;1.80;;;;;;;;;;4921794;29;20062;-65
2022/04/26 13:04:42;;;;;;;3.97;1.25;;;;;;;;;;4918903;29;20059;-64
2022/04/26 13:07:09;;;;;;;4.32;1.77;;;;;;;;;;4922909;29;20051;-68
2022/04/26 13:09:34;;;;;;;8.20;2.03;;;;;;;;;;4920442;29;20040;-65
2022/04/26 13:12:00;;;;;;;3.75;1.30;;;;;;;;;;4918438;29;20051;-66
2022/04/26 13:14:27;;;;;;;4.53;1.30;;;;;;;;;;4919824;29;20122;-66
2022/04/26 13:16:53;;;;;;;4.55;1.42;;;;;;;;;;4922614;29;20047;-66
2022/04/26 13:19:18;;;;;;;4.18;1.45;;;;;;;;;;4921113;29;20541;-65
2022/04/26 13:21:45;;;;;;;6.32;1.77;;;;;;;;;;4924499;29;20048;-66
2022/04/26 13:24:11;;;;;;;7.78;1.75;;;;;;;;;;4923559;29;20467;-66
2022/04/26 13:26:37;;;;;;;6.47;1.88;;;;;;;;;;4923342;29;20337;-67
2022/04/26 13:29:03;;;;;;;8.68;1.63;;;;;;;;;;4923004;29;20067;-68
2022/04/26 13:31:29;;;;;;;5.80;1.55;;;;;;;;;;4925801;29;20071;-68
2022/04/26 13:33:56;;;;;;;5.07;1.60;;;;;;;;;;4926179;29;20055;-66
2022/04/26 13:36:22;;;;;;;6.28;1.67;;;;;;;;;;4923147;29;20118;-66
2022/04/26 13:38:48;;;;;;;4.97;1.40;;;;;;;;;;4922967;29;20490;-66
2022/04/26 13:41:14;;;;;;;6.53;1.60;;;;;;;;;;4924850;29;20285;-66
2022/04/26 13:43:42;;;;;;;4.28;1.20;;;;;;;;;;4919528;29;20130;-68
2022/04/26 13:46:10;;;;;;;5.63;1.33;;;;;;;;;;4924286;29;20506;-68
2022/04/26 13:48:36;;;;;;;5.30;1.55;;;;;;;;;;4923424;29;20138;-63
2022/04/26 13:51:02;;;;;;;7.70;1.58;;;;;;;;;;4922208;29;20451;-64
2022/04/26 13:53:30;;;;;;;7.13;1.50;;;;;;;;;;4926598;29;20502;-65
2022/04/26 13:55:56;;;;;;;5.32;2.88;;;;;;;;;;4923418;29;20536;-66
2022/04/26 13:58:22;;;;;;;6.40;1.73;;;;;;;;;;4926716;29;20111;-65
2022/04/26 14:00:48;;;;;;;4.35;1.10;;;;;;;;;;4924429;29;20048;-66
2022/04/26 14:03:14;;;;;;;5.60;1.30;;;;;;;;;;4923767;29;20500;-66
2022/04/26 14:05:40;;;;;;;4.22;1.40;;;;;;;;;;4928234;29;20051;-65
2022/04/26 14:08:06;;;;;;;4.28;1.40;;;;;;;;;;4924843;29;20173;-67
2022/04/26 14:10:32;;;;;;;7.80;3.10;;;;;;;;;;4923866;29;20533;-66
2022/04/26 14:12:59;;;;;;;4.57;1.40;;;;;;;;;;4925633;29;20103;-66
2022/04/26 14:23:42;;;;;;;4.68;1.35;;;;;;;;;;4920604;29;20066;-66
2022/04/26 14:26:08;;;;;;;4.18;1.42;;;;;;;;;;4930036;29;20048;-68
2022/04/26 14:28:34;;;;;;;4.68;1.40;;;;;;;;;;4929767;29;20115;-65
2022/04/26 14:31:00;;;;;;;6.82;1.40;;;;;;;;;;4942660;28;20460;-66
2022/04/26 14:33:26;;;;;;;5.38;1.35;;;;;;;;;;4928303;29;20051;-65
2022/04/26 14:35:52;;;;;;;11.18;1.92;;;;;;;;;;4929588;29;20040;-65
2022/04/26 14:38:17;;;;;;;3.60;1.45;;;;;;;;;;4926782;29;20051;-65
2022/04/26 14:40:44;;;;;;;3.25;1.05;;;;;;;;;;4925249;29;20536;-67
2022/04/26 14:43:09;;;;;;;6.60;2.30;;;;;;;;;;4942821;28;20054;-65
2022/04/26 14:45:45;;;;;;;4.55;1.23;;;;;;;;;;4925322;29;20044;-67
2022/04/26 14:48:14;;;;;;;7.50;1.85;;;;;;;;;;4926079;29;20047;-66
2022/04/26 14:50:41;;;;;;;7.93;1.90;;;;;;;;;;4942537;28;20089;-64
2022/04/26 14:53:07;;;;;;;4.78;1.60;;;;;;;;;;4928088;29;20083;-68
2022/04/26 14:55:33;;;;;;;4.63;1.27;;;;;;;;;;4929939;29;20425;-68
2022/04/26 14:57:59;;;;;;;4.15;1.40;;;;;;;;;;4928280;29;20375;-69
2022/04/26 15:00:25;;;;;;;3.63;1.17;;;;;;;;;;4926504;29;20119;-67
2022/04/26 15:02:51;;;;;;;4.57;1.23;;;;;;;;;;4926055;29;20140;-67
2022/04/26 15:05:18;;;;;;;4.20;1.15;;;;;;;;;;4926312;29;20207;-67
2022/04/26 15:10:29;;;;;;;8.15;1.90;;;;;;;;;;4927968;29;20083;-68
2022/04/26 15:18:24;;;;;;;;;;;;;;;;;;4931231;29;20505;-68
2022/04/26 15:20:53;;;;;;;6.60;1.13;;;;;;;;;;4930542;29;19930;-67
2022/04/26 15:23:20;;;;;;;9.60;1.30;;;;;;;;;;4932739;29;20052;-66
2022/04/26 15:25:55;;;;;;;4.78;1.63;;;;;;;;;;4929472;29;20059;-69
2022/04/26 15:28:23;;;;;;;3.10;1.25;;;;;;;;;;4932024;29;20059;-66
2022/04/26 15:30:49;;;;;;;3.30;1.20;;;;;;;;;;4929922;29;20117;-66
2022/04/26 15:33:16;;;;;;;5.47;1.45;;;;;;;;;;4933024;29;20150;-66
2022/04/26 15:35:42;;;;;;;8.82;2.15;;;;;;;;;;4928309;29;20488;-67
2022/04/26 15:38:10;;;;;;;5.88;1.85;;;;;;;;;;4925914;29;20052;-71
2022/04/26 15:40:37;;;;;;;4.22;1.38;;;;;;;;;;4927695;29;20058;-74
2022/04/26 15:43:05;;;;;;;5.45;1.45;;;;;;;;;;4930363;29;20086;-69
2022/04/26 15:45:31;;;;;;;4.03;1.45;;;;;;;;;;4929923;29;20044;-69
2022/04/26 15:48:06;;;;;;;6.70;1.83;;;;;;;;;;4928241;29;20818;-70
2022/04/26 15:50:33;;;;;;;4.10;1.50;;;;;;;;;;4926747;29;20063;-71
2022/04/26 15:52:59;;;;;;;3.78;1.20;;;;;;;;;;4926732;29;20051;-70
2022/04/26 15:55:25;;;;;;;3.97;1.45;;;;;;;;;;4924995;29;20118;-70
2022/04/26 15:57:51;;;;;;;7.05;1.58;;;;;;;;;;4926500;29;20065;-71
2022/04/26 16:00:20;;;;;;;3.45;1.10;;;;;;;;;;4935230;29;20425;-68
2022/04/26 16:02:48;;;;;;;6.28;1.40;;;;;;;;;;4926776;29;20067;-69
2022/04/26 16:05:14;;;;;;;6.28;1.40;;;;;;;;;;4927449;29;20056;-67
2022/04/26 16:07:40;;;;;;;7.00;1.70;;;;;;;;;;4926893;29;20052;-67
2022/04/26 16:21:05;;;;;;;13.75;2.10;;;;;;;;;;4924355;29;20417;-71
2022/04/26 16:23:31;;;;;;;5.35;1.27;;;;;;;;;;4926043;29;20126;-71
2022/04/26 16:26:02;;;;;;;9.60;1.50;;;;;;;;;;4926159;29;20044;-68
2022/04/26 16:28:37;;;;;;;4.82;1.52;;;;;;;;;;4922739;29;20417;-67
2022/04/26 16:31:04;;;;;;;4.43;1.23;;;;;;;;;;4923032;29;20139;-71
2022/04/26 16:33:30;;;;;;;4.47;1.38;;;;;;;;;;4923895;29;20040;-72
2022/04/26 16:35:57;;;;;;;4.15;1.40;;;;;;;;;;4924617;29;20039;-71
2022/04/26 16:38:23;;;;;;;9.25;1.50;;;;;;;;;;4924850;29;20512;-67
2022/04/26 16:40:49;;;;;;;8.27;1.40;;;;;;;;;;4922578;29;20262;-71
2022/04/26 16:43:18;;;;;;;4.40;1.00;;;;;;;;;;4924707;29;20066;-70
2022/04/26 16:45:45;;;;;;;5.05;1.15;;;;;;;;;;4926229;29;20082;-73
2022/04/26 16:48:12;;;;;;;5.57;1.80;;;;;;;;;;4924159;29;20051;-67
2022/04/26 16:50:38;;;;;;;6.45;1.25;;;;;;;;;;4921830;29;20052;-67
2022/04/26 16:53:04;;;;;;;7.88;1.60;;;;;;;;;;4928638;29;20433;-72
2022/04/26 16:55:31;;;;;;;3.20;1.30;;;;;;;;;;4926205;29;20079;-73
2022/04/26 16:57:57;;;;;;;3.70;1.60;;;;;;;;;;4923546;29;20051;-72
2022/04/26 17:00:24;;;;;;;8.35;1.40;;;;;;;;;;4925147;29;20052;-72
2022/04/26 17:02:51;;;;;;;3.72;1.25;;;;;;;;;;4925932;29;20115;-74
2022/04/26 17:05:19;;;;;;;3.95;1.52;;;;;;;;;;4924490;29;20056;-68
2022/04/26 17:07:47;;;;;;;5.82;1.63;;;;;;;;;;4926540;29;20115;-70
2022/04/26 17:10:13;;;;;;;4.68;1.95;;;;;;;;;;4923711;29;20066;-71
2022/04/26 17:12:39;;;;;;;3.03;1.30;;;;;;;;;;4925304;29;20517;-72
2022/04/26 17:15:07;;;;;;;5.90;1.60;;;;;;;;;;4923494;29;20047;-71
2022/04/26 17:17:35;;;;;;;4.22;1.48;;;;;;;;;;4923049;29;20056;-73
2022/04/26 17:20:02;;;;;;;6.60;1.63;;;;;;;;;;4922276;29;20143;-75
2022/04/26 17:22:28;;;;;;;5.15;1.60;;;;;;;;;;4923168;29;20061;-73
2022/04/26 17:27:44;;;;;;;5.10;1.50;;;;;;;;;;4923288;29;20086;-69
2022/04/26 17:30:12;;;;;;;8.05;1.52;;;;;;;;;;4921431;29;20050;-69
2022/04/26 17:32:40;;;;;;;6.57;1.60;;;;;;;;;;4921944;29;20051;-71
2022/04/26 17:35:07;;;;;;;4.40;1.90;;;;;;;;;;4926175;29;20417;-72
2022/04/26 17:37:34;;;;;;;7.80;1.50;;;;;;;;;;4918775;29;20048;-71
2022/04/26 17:40:00;;;;;;;7.10;2.13;;;;;;;;;;4922794;29;20091;-69
2022/04/26 17:42:28;;;;;;;6.63;1.52;;;;;;;;;;4924075;29;20065;-71
2022/04/26 17:44:56;;;;;;;8.27;1.75;;;;;;;;;;4939806;28;20043;-69
2022/04/26 17:47:22;;;;;;;6.10;1.90;;;;;;;;;;4922963;29;20058;-71
2022/04/26 17:49:49;;;;;;;5.47;1.65;;;;;;;;;;4921365;29;20068;-77
2022/04/26 17:52:15;;;;;;;6.13;2.00;;;;;;;;;;4931428;29;20138;-76
2022/04/26 17:57:25;;;;;;;5.32;1.65;;;;;;;;;;4924497;29;20429;-75
2022/04/26 17:59:51;;;;;;;5.50;1.77;;;;;;;;;;4923684;29;20527;-75
2022/04/26 18:02:17;;;;;;;4.28;1.77;;;;;;;;;;4923951;29;20063;-75
2022/04/26 18:04:43;;;;;;;7.25;1.50;;;;;;;;;;4924378;29;20439;-74
2022/04/26 18:07:09;;;;;;;4.18;1.27;;;;;;;;;;4923006;29;20044;-75
2022/04/26 18:09:36;;;;;;;4.10;1.60;;;;;;;;;;4921378;29;20054;-76
2022/04/26 18:12:04;;;;;;;6.05;1.60;;;;;;;;;;4920965;29;20569;-74
2022/04/26 18:14:56;;;;;;;2.95;1.42;;;;;;;;;;4916349;29;20268;-72
2022/04/26 18:17:23;;;;;;;5.35;1.50;;;;;;;;;;4914367;29;20064;-75
2022/04/26 18:19:49;;;;;;;5.75;1.60;;;;;;;;;;4917371;29;20059;-74
2022/04/26 18:22:16;;;;;;;5.72;1.88;;;;;;;;;;4924334;29;20173;-74
2022/04/26 18:24:47;;;;;;;4.25;1.58;;;;;;;;;;4918203;29;20058;-74
2022/04/26 18:27:13;;;;;;;3.88;1.60;;;;;;;;;;4925648;29;20046;-73
2022/04/26 18:29:38;;;;;;;5.28;1.65;;;;;;;;;;4922688;29;20063;-74
2022/04/26 18:32:05;;;;;;;4.93;1.60;;;;;;;;;;4920027;29;20514;-76
2022/04/26 18:34:31;;;;;;;5.90;2.00;;;;;;;;;;4917264;29;20048;-73
2022/04/26 18:36:57;;;;;;;8.02;2.00;;;;;;;;;;4918812;29;20548;-73
2022/04/26 18:39:24;;;;;;;7.00;2.15;;;;;;;;;;4924214;29;20450;-76
2022/04/26 18:41:56;;;;;;;6.82;2.15;;;;;;;;;;4925565;29;20052;-75
2022/04/26 18:44:23;;;;;;;4.20;2.47;;;;;;;;;;4917449;29;20052;-76
2022/04/26 18:46:50;;;;;;;5.97;1.70;;;;;;;;;;4923820;29;20140;-74
2022/04/26 18:49:18;;;;;;;6.97;1.77;;;;;;;;;;4929967;29;20048;-73
2022/04/26 18:51:46;;;;;;;7.43;2.40;;;;;;;;;;4925778;29;20043;-72
2022/04/26 18:54:13;;;;;;;9.38;2.38;;;;;;;;;;4934931;29;20458;-74
2022/04/26 18:56:39;;;;;;;7.07;1.67;;;;;;;;;;4933094;29;20050;-75
2022/04/26 18:59:05;;;;;;;4.95;1.77;;;;;;;;;;4943756;29;20115;-75
2022/04/26 19:01:31;;;;;;;5.63;2.03;;;;;;;;;;4925849;29;20123;-74
2022/04/26 19:03:56;;;;;;;5.78;1.70;;;;;;;;;;4924702;29;20043;-74
2022/04/26 19:06:23;;;;;;;5.20;1.80;;;;;;;;;;4926479;29;20062;-76
2022/04/26 19:08:50;;;;;;;6.95;2.20;;;;;;;;;;4928728;29;20066;-75
2022/04/26 19:14:01;;;;;;;3.63;1.70;;;;;;;;;;4931185;29;20154;-75
2022/04/26 19:16:27;;;;;;;4.30;1.73;;;;;;;;;;4927059;29;20059;-75
2022/04/26 19:18:57;;;;;;;6.20;1.70;;;;;;;;;;4923618;29;20135;-75